createdAt,value
2023-02-27T00:34:11.282Z,66.03
2023-02-27T00:36:42.940Z,65.80
2023-02-27T00:39:11.563Z,65.28
2023-02-27T00:41:42.695Z,65.17
2023-02-27T00:44:11.154Z,64.98
2023-02-27T00:46:39.870Z,64.57
2023-02-27T00:49:08.722Z,64.12
2023-02-27T00:51:37.055Z,63.95
2023-02-27T00:54:21.458Z,63.76
2023-02-27T00:56:49.963Z,63.75
2023-02-27T00:59:19.550Z,63.57
2023-02-27T01:01:48.619Z,63.33
2023-02-27T01:04:16.948Z,63.37
2023-02-27T01:06:45.124Z,63.27
2023-02-27T01:09:15.419Z,63.21
2023-02-27T01:11:43.866Z,63.24
2023-02-27T01:14:12.379Z,63.46
2023-02-27T01:16:41.750Z,63.11
2023-02-27T01:19:14.004Z,63.09
2023-02-27T01:21:42.421Z,63.08
2023-02-27T01:24:11.878Z,63.19
2023-02-27T01:26:40.515Z,63.17
2023-02-27T01:29:09.158Z,62.90
2023-02-27T01:31:37.670Z,62.77
2023-02-27T01:34:06.084Z,63.08
2023-02-27T01:36:34.941Z,63.23
2023-02-27T01:39:03.506Z,63.13
2023-02-27T01:41:32.278Z,62.89
2023-02-27T01:44:10.167Z,62.66
2023-02-27T01:46:39.279Z,63.01
2023-02-27T01:49:16.345Z,63.04
2023-02-27T01:51:53.826Z,63.08
2023-02-27T01:54:26.211Z,63.18
2023-02-27T01:56:55.030Z,63.06
2023-02-27T01:59:26.687Z,63.09
2023-02-27T02:01:56.946Z,63.30
2023-02-27T02:04:32.316Z,63.30
2023-02-27T02:07:14.013Z,63.29
2023-02-27T02:09:59.277Z,63.62
2023-02-27T02:12:31.038Z,63.63
2023-02-27T02:14:59.629Z,63.61
2023-02-27T02:17:31.071Z,63.71
2023-02-27T02:20:21.279Z,63.67
2023-02-27T02:23:09.880Z,64.18
2023-02-27T02:26:07.844Z,64.30
2023-02-27T02:29:01.061Z,64.73
2023-02-27T02:31:52.315Z,64.61
2023-02-27T02:35:03.122Z,64.63
2023-02-27T02:38:03.319Z,64.43
2023-02-27T02:40:47.238Z,64.53
2023-02-27T02:43:30.902Z,64.49
2023-02-27T02:46:08.646Z,64.41
2023-02-27T02:48:49.134Z,64.00
2023-02-27T02:51:30.779Z,64.10
2023-02-27T02:54:25.552Z,64.15
2023-02-27T02:57:15.676Z,64.23
2023-02-27T02:59:58.302Z,64.24
2023-02-27T03:02:31.534Z,64.18
2023-02-27T03:05:14.654Z,64.19
2023-02-27T03:07:49.547Z,64.32
2023-02-27T03:10:22.727Z,64.25
2023-02-27T03:13:17.477Z,64.22
2023-02-27T03:15:51.497Z,64.47
2023-02-27T03:18:26.555Z,64.19
2023-02-27T03:21:01.864Z,64.12
2023-02-27T03:23:37.709Z,64.04
2023-02-27T03:26:07.655Z,64.19
2023-02-27T03:28:41.388Z,63.86
2023-02-27T03:31:32.423Z,63.71
2023-02-27T03:34:11.934Z,63.72
2023-02-27T03:37:01.269Z,63.66
2023-02-27T03:39:50.624Z,64.03
2023-02-27T03:42:34.827Z,63.80
2023-02-27T03:45:42.084Z,63.66
2023-02-27T03:48:11.179Z,63.96
2023-02-27T03:50:39.908Z,63.95
2023-02-27T03:53:19.004Z,63.51
2023-02-27T03:55:49.472Z,63.45
2023-02-27T03:58:18.039Z,63.22
2023-02-27T04:00:46.774Z,62.91
2023-02-27T04:03:16.579Z,62.95
2023-02-27T04:05:45.369Z,62.84
2023-02-27T04:08:14.678Z,62.72
2023-02-27T04:10:51.726Z,62.56
2023-02-27T04:13:27.738Z,62.57
2023-02-27T04:16:36.447Z,62.67
2023-02-27T04:19:23.593Z,62.91
2023-02-27T04:21:54.804Z,62.68
2023-02-27T04:24:52.509Z,62.60
2023-02-27T04:27:28.057Z,62.89
2023-02-27T04:30:02.248Z,62.76
2023-02-27T04:32:43.609Z,62.54
2023-02-27T04:35:45.490Z,62.33
2023-02-27T04:38:36.472Z,62.47
2023-02-27T04:41:12.331Z,62.56
2023-02-27T04:43:45.155Z,62.39
2023-02-27T04:46:18.846Z,62.06
2023-02-27T04:49:15.840Z,62.03
2023-02-27T04:51:58.760Z,62.06
2023-02-27T04:54:33.492Z,62.05
2023-02-27T04:57:07.234Z,62.24
2023-02-27T04:59:41.667Z,62.25
2023-02-27T05:02:16.483Z,62.31
2023-02-27T05:04:46.555Z,62.28
2023-02-27T05:07:19.567Z,62.60
2023-02-27T05:10:03.736Z,62.47
2023-02-27T05:12:52.597Z,62.57
2023-02-27T05:15:48.295Z,62.38
2023-02-27T05:18:20.389Z,62.26
2023-02-27T05:21:02.402Z,62.16
2023-02-27T05:24:02.138Z,62.40
2023-02-27T05:26:55.656Z,62.41
2023-02-27T05:29:23.796Z,62.01
2023-02-27T05:32:15.996Z,61.76
2023-02-27T05:34:52.448Z,61.89
2023-02-27T05:37:28.949Z,61.90
2023-02-27T05:40:00.258Z,61.98
2023-02-27T05:42:38.962Z,61.68
2023-02-27T05:45:20.307Z,61.45
2023-02-27T05:48:05.006Z,61.68
2023-02-27T05:50:36.097Z,61.66
2023-02-27T05:53:11.682Z,61.75
2023-02-27T05:55:47.334Z,61.48
2023-02-27T05:58:33.865Z,61.48
2023-02-27T06:01:07.965Z,61.71
2023-02-27T06:03:40.368Z,61.65
2023-02-27T06:06:14.897Z,61.42
2023-02-27T06:08:44.844Z,61.03
2023-02-27T06:11:13.758Z,60.81
2023-02-27T06:13:42.388Z,60.81
2023-02-27T06:16:13.128Z,60.70
2023-02-27T06:18:42.703Z,60.77
2023-02-27T06:21:13.761Z,60.55
2023-02-27T06:23:42.725Z,60.68
2023-02-27T06:26:14.448Z,60.38
2023-02-27T06:28:42.826Z,60.63
2023-02-27T06:31:11.334Z,60.44
2023-02-27T06:33:39.833Z,60.43
2023-02-27T06:36:08.301Z,60.27
2023-02-27T06:38:37.682Z,60.33
2023-02-27T06:41:06.260Z,60.35
2023-02-27T06:43:37.308Z,60.63
2023-02-27T06:46:06.092Z,60.49
2023-02-27T06:48:38.005Z,60.20
2023-02-27T06:51:06.500Z,60.28
2023-02-27T06:53:35.036Z,60.60
2023-02-27T06:56:03.456Z,60.49
2023-02-27T06:58:31.621Z,60.21
2023-02-27T07:01:01.317Z,60.07
2023-02-27T07:03:32.590Z,60.00
2023-02-27T07:07:32.545Z,60.18
2023-02-27T07:09:23.445Z,60.59
2023-02-27T07:11:51.815Z,60.39
2023-02-27T07:14:20.293Z,60.46
2023-02-27T07:16:51.236Z,60.38
2023-02-27T07:19:19.735Z,60.44
2023-02-27T07:21:48.292Z,60.51
2023-02-27T07:24:17.262Z,60.36
2023-02-27T07:26:46.764Z,60.18
2023-02-27T07:29:18.049Z,60.26
2023-02-27T07:31:46.214Z,60.20
2023-02-27T07:34:16.143Z,60.10
2023-02-27T07:36:46.646Z,60.37
2023-02-27T07:39:15.443Z,60.08
2023-02-27T07:41:47.232Z,60.02
2023-02-27T07:44:15.729Z,59.73
2023-02-27T07:46:45.082Z,59.70
2023-02-27T07:49:13.567Z,60.11
2023-02-27T07:51:41.755Z,59.81
2023-02-27T07:54:10.965Z,60.14
2023-02-27T07:56:42.225Z,59.92
2023-02-27T07:59:11.389Z,60.17
2023-02-27T08:01:42.940Z,60.25
2023-02-27T08:04:11.580Z,59.73
2023-02-27T08:06:43.860Z,59.66
2023-02-27T08:09:12.544Z,59.20
2023-02-27T08:11:41.896Z,59.07
2023-02-27T08:14:10.687Z,59.87
2023-02-27T08:16:40.880Z,59.53
2023-02-27T08:19:09.984Z,59.26
2023-02-27T08:21:41.460Z,58.99
2023-02-27T08:24:09.881Z,58.93
2023-02-27T08:26:38.450Z,59.19
2023-02-27T08:29:07.960Z,58.48
2023-02-27T08:31:36.576Z,58.38
2023-02-27T08:34:10.428Z,58.30
2023-02-27T08:36:40.331Z,57.97
2023-02-27T08:39:10.075Z,57.85
2023-02-27T08:41:39.554Z,57.82
2023-02-27T08:44:08.030Z,57.66
2023-02-27T08:46:36.551Z,57.58
2023-02-27T08:49:05.660Z,57.41
2023-02-27T08:51:36.929Z,56.96
2023-02-27T08:54:05.714Z,56.98
2023-02-27T08:56:35.277Z,56.85
2023-02-27T08:59:03.821Z,56.66
2023-02-27T09:01:36.698Z,56.52
2023-02-27T09:04:09.965Z,56.17
2023-02-27T09:06:38.964Z,55.35
2023-02-27T09:09:07.523Z,55.16
2023-02-27T09:11:38.232Z,55.09
2023-02-27T09:14:07.985Z,54.67
2023-02-27T09:16:37.436Z,54.48
2023-02-27T09:19:07.399Z,54.28
2023-02-27T09:21:37.657Z,54.60
2023-02-27T09:24:19.095Z,54.00
2023-02-27T09:26:50.427Z,54.17
2023-02-27T09:29:19.141Z,53.69
2023-02-27T09:31:47.998Z,53.21
2023-02-27T09:34:19.677Z,53.15
2023-02-27T09:36:47.728Z,52.84
2023-02-27T09:39:16.304Z,52.76
2023-02-27T09:41:56.058Z,52.50
2023-02-27T09:44:47.413Z,52.36
2023-02-27T09:47:25.486Z,52.67
2023-02-27T09:50:05.406Z,52.50
2023-02-27T09:52:38.164Z,52.32
2023-02-27T09:55:19.633Z,52.35
2023-02-27T09:57:52.386Z,51.33
2023-02-27T10:00:36.960Z,50.65
2023-02-27T10:03:32.902Z,50.12
2023-02-27T10:06:25.682Z,50.06
2023-02-27T10:09:33.186Z,49.47
2023-02-27T10:12:20.727Z,48.54
2023-02-27T10:15:08.245Z,47.61
2023-02-27T10:17:42.770Z,47.11
2023-02-27T10:20:26.391Z,47.14
2023-02-27T10:22:57.693Z,47.16
2023-02-27T10:25:32.178Z,46.51
2023-02-27T10:28:16.392Z,46.06
2023-02-27T10:30:57.100Z,45.03
2023-02-27T10:33:40.474Z,44.56
2023-02-27T10:36:18.070Z,44.02
2023-02-27T10:39:18.185Z,43.58
2023-02-27T10:41:47.883Z,43.64
2023-02-27T10:44:20.801Z,43.34
2023-02-27T10:46:51.766Z,42.51
2023-02-27T10:49:22.473Z,40.35
2023-02-27T10:52:11.385Z,40.12
2023-02-27T10:54:42.225Z,40.53
2023-02-27T10:57:33.311Z,40.17
2023-02-27T11:00:07.233Z,40.48
2023-02-27T11:02:41.159Z,40.37
2023-02-27T11:05:30.834Z,39.98
2023-02-27T11:08:26.879Z,39.85
2023-02-27T11:10:57.088Z,40.07
2023-02-27T11:13:28.325Z,39.84
2023-02-27T11:16:14.286Z,39.44
2023-02-27T11:18:45.179Z,39.42
2023-02-27T11:21:28.351Z,39.25
2023-02-27T11:23:59.257Z,39.33
2023-02-27T11:26:31.383Z,38.89
2023-02-27T11:29:07.430Z,38.48
2023-02-27T11:31:37.490Z,38.27
2023-02-27T11:34:08.607Z,38.04
2023-02-27T11:36:46.689Z,37.26
2023-02-27T11:39:35.643Z,35.94
2023-02-27T11:42:23.242Z,33.50
2023-02-27T11:45:00.016Z,30.36
2023-02-27T11:47:36.127Z,27.95
2023-02-27T11:50:35.338Z,27.39
2023-02-27T11:53:27.995Z,26.95
2023-02-27T11:55:59.705Z,25.65
2023-02-27T11:58:35.806Z,25.62
2023-02-27T12:01:09.365Z,26.19
2023-02-27T12:04:05.063Z,27.09
2023-02-27T12:07:21.607Z,28.50
2023-02-27T12:10:09.475Z,29.78
2023-02-27T12:12:45.232Z,30.32
2023-02-27T12:15:13.654Z,30.98
2023-02-27T12:17:50.565Z,31.24
2023-02-27T12:20:59.909Z,31.45
2023-02-27T12:23:39.142Z,30.35
2023-02-27T12:26:15.216Z,27.52
2023-02-27T12:28:58.880Z,24.77
2023-02-27T12:31:36.008Z,23.69
2023-02-27T12:34:42.549Z,23.73
2023-02-27T12:37:21.261Z,24.61
2023-02-27T12:39:53.488Z,25.79
2023-02-27T12:42:45.240Z,26.78
2023-02-27T12:45:16.281Z,28.18
2023-02-27T12:47:52.070Z,28.92
2023-02-27T12:50:23.600Z,29.67
2023-02-27T12:53:07.237Z,29.90
2023-02-27T12:55:43.884Z,30.67
2023-02-27T12:58:35.696Z,31.03
2023-02-27T13:01:39.416Z,31.52
2023-02-27T13:04:25.355Z,31.78
2023-02-27T13:07:20.643Z,32.51
2023-02-27T13:09:57.581Z,32.65
2023-02-27T13:12:47.343Z,32.21
2023-02-27T13:15:20.113Z,32.23
2023-02-27T13:18:01.924Z,32.47
2023-02-27T13:20:57.192Z,33.00
2023-02-27T13:23:48.853Z,33.28
2023-02-27T13:26:30.477Z,32.78
2023-02-27T13:29:01.324Z,32.56
2023-02-27T13:31:46.769Z,31.79
2023-02-27T13:34:23.486Z,28.54
2023-02-27T13:37:01.829Z,28.43
2023-02-27T13:39:46.081Z,28.76
2023-02-27T13:42:33.567Z,28.74
2023-02-27T13:45:04.168Z,29.16
2023-02-27T13:47:50.106Z,29.03
2023-02-27T13:50:18.299Z,29.38
2023-02-27T13:52:48.043Z,28.75
2023-02-27T13:55:38.096Z,28.25
2023-02-27T13:58:14.862Z,28.24
2023-02-27T14:00:45.267Z,27.46
2023-02-27T14:03:22.272Z,26.08
2023-02-27T14:05:53.933Z,25.95
2023-02-27T14:08:47.524Z,26.88
2023-02-27T14:11:18.169Z,26.90
2023-02-27T14:13:50.506Z,26.79
2023-02-27T14:16:40.599Z,27.01
2023-02-27T14:19:27.503Z,27.10
2023-02-27T14:22:31.801Z,26.97
2023-02-27T14:25:20.605Z,27.46
2023-02-27T14:27:56.503Z,28.18
2023-02-27T14:30:40.979Z,28.65
2023-02-27T14:33:33.290Z,29.44
2023-02-27T14:36:20.419Z,29.96
2023-02-27T14:38:59.883Z,30.39
2023-02-27T14:41:49.868Z,30.61
2023-02-27T14:44:25.038Z,30.92
2023-02-27T14:46:55.835Z,30.84
2023-02-27T14:49:34.143Z,31.27
2023-02-27T14:52:22.683Z,31.59
2023-02-27T14:54:52.123Z,32.05
2023-02-27T14:57:27.085Z,31.77
2023-02-27T14:59:56.172Z,32.24
2023-02-27T15:02:35.009Z,32.50
2023-02-27T15:05:03.920Z,32.92
2023-02-27T15:07:35.881Z,32.93
2023-02-27T15:10:12.378Z,33.12
2023-02-27T15:12:40.966Z,33.77
2023-02-27T15:15:16.836Z,33.82
2023-02-27T15:17:48.859Z,34.01
2023-02-27T15:20:30.515Z,34.79
2023-02-27T15:23:01.983Z,34.77
2023-02-27T15:25:39.230Z,34.96
2023-02-27T15:28:24.232Z,35.14
2023-02-27T15:30:55.641Z,35.39
2023-02-27T15:33:31.103Z,35.61
2023-02-27T15:36:03.025Z,35.67
2023-02-27T15:38:38.480Z,35.84
2023-02-27T15:41:08.917Z,35.92
2023-02-27T15:43:37.627Z,36.15
2023-02-27T15:46:06.192Z,36.15
2023-02-27T15:48:34.865Z,36.34
2023-02-27T15:51:04.692Z,36.71
2023-02-27T15:53:34.395Z,36.73
2023-02-27T15:56:06.996Z,36.76
2023-02-27T15:58:47.290Z,37.02
2023-02-27T16:01:21.855Z,37.24
2023-02-27T16:03:53.398Z,37.47
2023-02-27T16:06:39.141Z,37.57
2023-02-27T16:09:21.390Z,37.99
2023-02-27T16:11:49.890Z,38.23
2023-02-27T16:14:41.335Z,38.40
2023-02-27T16:17:55.775Z,38.62
2023-02-27T16:20:48.171Z,38.71
2023-02-27T16:23:26.787Z,39.03
2023-02-27T16:26:01.799Z,39.13
2023-02-27T16:28:35.180Z,39.18
2023-02-27T16:31:08.523Z,39.23
2023-02-27T16:33:41.128Z,39.28
2023-02-27T16:36:21.850Z,39.49
2023-02-27T16:38:52.110Z,39.46
2023-02-27T16:41:22.283Z,39.77
2023-02-27T16:43:53.833Z,39.81
2023-02-27T16:46:22.927Z,39.97
2023-02-27T16:48:55.874Z,39.94
2023-02-27T16:51:27.068Z,40.23
2023-02-27T16:53:57.577Z,40.26
2023-02-27T16:56:37.796Z,40.34
2023-02-27T16:59:08.863Z,40.67
2023-02-27T17:01:37.260Z,40.77
2023-02-27T17:04:13.551Z,40.92
2023-02-27T17:06:48.088Z,41.23
2023-02-27T17:09:16.902Z,41.32
2023-02-27T17:11:46.143Z,41.46
2023-02-27T17:14:15.475Z,41.79
2023-02-27T17:16:43.779Z,41.92
2023-02-27T17:19:12.358Z,42.02
2023-02-27T17:21:41.397Z,42.24
2023-02-27T17:24:09.988Z,42.57
2023-02-27T17:26:38.346Z,42.64
2023-02-27T17:29:07.014Z,42.52
2023-02-27T17:31:36.905Z,42.89
2023-02-27T17:34:05.691Z,43.12
2023-02-27T17:36:33.915Z,43.26
2023-02-27T17:39:04.562Z,43.53
2023-02-27T17:41:33.175Z,43.39
2023-02-27T17:44:02.414Z,43.31
2023-02-27T17:46:31.967Z,43.45
2023-02-27T17:49:01.277Z,43.71
2023-02-27T17:51:31.738Z,43.42
2023-02-27T17:54:05.465Z,43.57
2023-02-27T17:56:36.806Z,43.73
2023-02-27T17:59:06.044Z,43.48
2023-02-27T18:01:38.286Z,43.61
2023-02-27T18:04:08.357Z,44.02
2023-02-27T18:06:38.162Z,44.03
2023-02-27T18:09:07.066Z,44.02
2023-02-27T18:11:39.203Z,43.82
2023-02-27T18:14:07.699Z,43.99
2023-02-27T18:16:36.981Z,44.30
2023-02-27T18:19:07.009Z,44.59
2023-02-27T18:21:36.107Z,44.46
2023-02-27T18:24:05.120Z,44.54
2023-02-27T18:26:33.613Z,44.43
2023-02-27T18:29:06.560Z,44.59
2023-02-27T18:31:39.110Z,44.62
2023-02-27T18:34:09.577Z,44.79
2023-02-27T18:36:38.807Z,45.16
2023-02-27T18:39:08.189Z,45.33
2023-02-27T18:41:39.916Z,45.14
2023-02-27T18:44:12.371Z,44.97
2023-02-27T18:46:43.966Z,45.16
2023-02-27T18:49:13.642Z,45.27
2023-02-27T18:51:44.403Z,45.84
2023-02-27T18:54:14.687Z,45.84
2023-02-27T18:56:43.611Z,45.87
2023-02-27T18:59:12.621Z,45.89
2023-02-27T19:01:41.162Z,45.98
2023-02-27T19:04:09.941Z,46.04
2023-02-27T19:06:41.194Z,46.07
2023-02-27T19:09:19.161Z,46.31
2023-02-27T19:11:48.808Z,46.53
2023-02-27T19:14:17.363Z,46.59
2023-02-27T19:16:46.836Z,46.83
2023-02-27T19:19:15.509Z,47.01
2023-02-27T19:21:44.991Z,47.24
2023-02-27T19:24:14.577Z,47.31
2023-02-27T19:26:43.052Z,47.51
2023-02-27T19:29:11.543Z,47.54
2023-02-27T19:31:40.713Z,47.79
2023-02-27T19:34:09.187Z,47.81
2023-02-27T19:36:37.487Z,47.91
2023-02-27T19:39:06.353Z,48.11
2023-02-27T19:41:37.351Z,48.36
2023-02-27T19:44:06.362Z,48.17
2023-02-27T19:46:36.195Z,48.38
2023-02-27T19:49:06.081Z,48.21
2023-02-27T19:51:34.821Z,48.51
2023-02-27T19:54:04.076Z,48.76
2023-02-27T19:56:32.607Z,48.68
2023-02-27T19:59:02.061Z,48.99
2023-02-27T20:01:35.493Z,48.88
2023-02-27T20:04:04.791Z,49.03
2023-02-27T20:06:44.341Z,49.30
2023-02-27T20:09:16.885Z,49.28
2023-02-27T20:11:53.778Z,49.50
2023-02-27T20:14:22.443Z,49.77
2023-02-27T20:16:51.041Z,49.48
2023-02-27T20:19:21.604Z,49.60
2023-02-27T20:21:51.085Z,49.79
2023-02-27T20:24:20.904Z,49.80
2023-02-27T20:26:55.516Z,50.06
2023-02-27T20:29:25.889Z,50.73
2023-02-27T20:32:15.183Z,51.40
2023-02-27T20:34:44.402Z,51.32
2023-02-27T20:37:12.980Z,51.11
2023-02-27T20:39:45.593Z,51.00
2023-02-27T20:42:15.278Z,51.25
2023-02-27T20:44:49.793Z,51.05
2023-02-27T20:47:18.296Z,51.40
2023-02-27T20:49:46.735Z,51.32
2023-02-27T20:52:15.494Z,51.56
2023-02-27T20:54:44.037Z,51.49
2023-02-27T20:57:13.026Z,51.54
2023-02-27T20:59:41.749Z,51.62
2023-02-27T21:02:13.535Z,51.71
2023-02-27T21:04:48.627Z,51.91
2023-02-27T21:07:21.608Z,51.90
2023-02-27T21:09:51.706Z,51.80
2023-02-27T21:12:20.601Z,51.75
2023-02-27T21:14:52.588Z,51.74
2023-02-27T21:17:21.656Z,51.80
2023-02-27T21:19:50.535Z,52.17
2023-02-27T21:22:18.905Z,52.73
2023-02-27T21:24:50.304Z,52.95
2023-02-27T21:27:22.145Z,52.72
2023-02-27T21:29:55.101Z,52.58
2023-02-27T21:32:24.414Z,52.50
2023-02-27T21:34:52.944Z,52.49
2023-02-27T21:37:24.226Z,52.48
2023-02-27T21:39:55.680Z,52.43
2023-02-27T21:42:24.407Z,52.60
2023-02-27T21:44:55.415Z,52.71
2023-02-27T21:47:24.010Z,52.87
2023-02-27T21:49:55.538Z,52.74
2023-02-27T21:52:24.288Z,53.03
2023-02-27T21:54:54.401Z,53.18
2023-02-27T21:57:23.378Z,53.33
2023-02-27T21:59:52.205Z,53.20
2023-02-27T22:02:20.665Z,52.89
2023-02-27T22:04:52.250Z,52.50
2023-02-27T22:07:20.744Z,52.71
2023-02-27T22:09:50.245Z,52.99
2023-02-27T22:12:19.670Z,52.85
2023-02-27T22:14:48.751Z,52.93
2023-02-27T22:17:18.390Z,52.90
2023-02-27T22:19:48.536Z,53.08
2023-02-27T22:22:17.309Z,52.99
2023-02-27T22:24:46.250Z,53.27
2023-02-27T22:27:16.837Z,53.30
2023-02-27T22:29:48.573Z,53.14
2023-02-27T22:32:17.498Z,53.15
2023-02-27T22:34:46.331Z,53.19
2023-02-27T22:37:20.037Z,52.93
2023-02-27T22:39:48.653Z,53.04
2023-02-27T22:42:17.285Z,52.81
2023-02-27T22:44:46.006Z,52.89
2023-02-27T22:47:14.750Z,53.09
2023-02-27T22:49:43.365Z,53.22
2023-02-27T22:52:11.729Z,53.39
2023-02-27T22:54:40.779Z,53.59
2023-02-27T22:57:09.330Z,53.55
2023-02-27T22:59:37.898Z,53.54
2023-02-27T23:02:06.754Z,53.29
2023-02-27T23:04:35.616Z,53.46
2023-02-27T23:07:04.369Z,53.39
2023-02-27T23:09:32.560Z,53.48
2023-02-27T23:12:03.953Z,53.47
2023-02-27T23:14:32.443Z,53.61
2023-02-27T23:17:01.055Z,54.10
2023-02-27T23:19:29.746Z,54.15
2023-02-27T23:21:58.127Z,53.88
2023-02-27T23:24:26.982Z,53.93
2023-02-27T23:26:56.477Z,53.66
2023-02-27T23:29:24.764Z,53.68
2023-02-27T23:31:56.291Z,53.65
2023-02-27T23:34:25.488Z,53.56
2023-02-27T23:36:53.923Z,53.60
2023-02-27T23:39:22.441Z,53.63
2023-02-27T23:41:51.308Z,53.91
2023-02-27T23:44:20.551Z,54.04
2023-02-27T23:46:48.836Z,53.87
2023-02-27T23:49:17.098Z,53.95
2023-02-27T23:51:46.556Z,53.86
2023-02-27T23:54:15.024Z,53.61
2023-02-27T23:56:43.826Z,53.85
2023-02-27T23:59:13.839Z,54.01
